Time;durP1;ratioP1;P1;durP2;ratioP2;P2;SDS_P1;SDS_P2;PMS_P1;PMS_P2;Temp;Humidity;BMP_temperature;BMP_pressure;BME280_temperature;BME280_humidity;BME280_pressure;Samples;Min_cycle;Max_cycle;Signal;HPM_P1;HPM_P2
2023/09/27 00:01:21;;;;;;;6.07;5.57;;;;;;;16.03;90.31;100715.28;5061324;28;20200;-81
2023/09/27 00:03:47;;;;;;;4.43;4.00;;;;;;;16.10;90.88;100694.88;5059585;28;20683;-81
2023/09/27 00:06:14;;;;;;;4.67;3.97;;;;;;;16.24;90.75;100674.97;5059107;28;20207;-80
2023/09/27 00:08:41;;;;;;;4.50;4.10;;;;;;;16.42;89.54;100680.44;5059324;28;20251;-83
2023/09/27 00:11:07;;;;;;;5.70;4.63;;;;;;;16.58;87.77;100714.97;5058415;28;20252;-82
2023/09/27 00:13:34;;;;;;;4.03;3.73;;;;;;;16.64;86.67;100739.28;5052903;28;20211;-82
2023/09/27 00:16:01;;;;;;;3.70;3.47;;;;;;;16.69;86.33;100749.66;5051790;28;20216;-82
2023/09/27 00:18:28;;;;;;;3.70;3.40;;;;;;;16.81;85.48;100778.22;5058949;28;20769;-82
2023/09/27 00:20:54;;;;;;;3.47;3.27;;;;;;;16.84;85.09;100791.25;5052518;28;20211;-82
2023/09/27 00:23:21;;;;;;;3.83;3.50;;;;;;;16.88;84.80;100786.72;5058276;28;20205;-82
2023/09/27 00:25:47;;;;;;;3.83;3.57;;;;;;;16.93;84.92;100795.31;5059779;28;20200;-82
2023/09/27 00:28:13;;;;;;;4.53;3.07;;;;;;;16.94;85.15;100781.22;5059407;28;20213;-83
2023/09/27 00:30:40;;;;;;;3.33;3.07;;;;;;;16.99;84.85;100789.81;5059528;28;20274;-83
2023/09/27 00:33:08;;;;;;;3.03;2.77;;;;;;;17.01;84.90;100798.50;5059693;28;20205;-83
2023/09/27 00:35:34;;;;;;;3.17;2.97;;;;;;;17.02;85.11;100786.19;5059313;28;20200;-82
2023/09/27 00:38:01;;;;;;;3.10;2.80;;;;;;;17.06;85.20;100785.97;5059115;28;20216;-83
2023/09/27 00:40:27;;;;;;;2.90;2.70;;;;;;;16.98;87.22;100769.63;5057748;28;20220;-81
2023/09/27 00:42:54;;;;;;;2.60;2.50;;;;;;;17.01;88.24;100743.13;5058451;28;20239;-83
2023/09/27 00:45:21;;;;;;;3.40;3.10;;;;;;;17.08;86.62;100767.47;5059175;28;20291;-82
2023/09/27 00:47:48;;;;;;;4.30;3.97;;;;;;;17.00;85.04;100811.75;5059295;28;20200;-82
2023/09/27 00:50:17;;;;;;;4.37;3.97;;;;;;;16.51;85.95;100819.75;5053249;28;20350;-82
2023/09/27 00:52:45;;;;;;;4.60;4.33;;;;;;;16.66;86.04;100798.06;5061089;28;20228;-82
2023/09/27 00:55:14;;;;;;;4.57;4.27;;;;;;;16.33;87.49;100789.66;5046261;28;20228;-82
2023/09/27 00:57:41;;;;;;;4.23;3.93;;;;;;;16.51;87.62;100767.06;5061992;28;20216;-82
2023/09/27 01:00:10;;;;;;;4.07;3.87;;;;;;;16.63;86.76;100756.03;5059561;28;20240;-79
2023/09/27 01:02:37;;;;;;;4.10;3.90;;;;;;;16.71;85.94;100760.13;5060034;28;20201;-81
2023/09/27 01:05:03;;;;;;;4.13;3.83;;;;;;;16.75;85.17;100769.63;5059129;28;20215;-80
2023/09/27 01:07:31;;;;;;;3.63;3.43;;;;;;;16.78;85.02;100793.25;5045495;28;20275;-80
2023/09/27 01:09:58;;;;;;;3.93;3.63;;;;;;;16.68;89.51;100729.50;5057360;28;20267;-81
2023/09/27 01:12:24;;;;;;;3.63;3.43;;;;;;;16.71;89.78;100700.38;5059473;28;20224;-81
2023/09/27 01:14:51;;;;;;;3.30;3.00;;;;;;;16.76;88.34;100710.72;5059304;28;20212;-82
2023/09/27 01:17:17;;;;;;;3.77;3.27;;;;;;;16.81;86.83;100749.22;5059189;28;20211;-81
2023/09/27 01:19:43;;;;;;;3.40;3.10;;;;;;;16.82;86.09;100760.59;5053090;28;20234;-82
2023/09/27 01:22:10;;;;;;;3.63;3.30;;;;;;;16.84;85.75;100769.31;5057391;28;20208;-83
2023/09/27 01:24:38;;;;;;;3.60;3.00;;;;;;;16.83;86.60;100775.53;5058399;28;20204;-82
2023/09/27 01:27:07;;;;;;;3.57;3.30;;;;;;;16.78;88.41;100748.44;5059077;28;20271;-83
2023/09/27 01:29:34;;;;;;;3.50;3.30;;;;;;;16.83;88.62;100728.06;5059053;28;20232;-82
2023/09/27 01:32:00;;;;;;;3.20;3.00;;;;;;;16.86;88.17;100723.50;5059213;28;20251;-82
2023/09/27 01:34:26;;;;;;;3.10;2.90;;;;;;;16.87;86.40;100756.03;5050235;28;20205;-79
2023/09/27 01:36:54;;;;;;;2.93;2.70;;;;;;;16.84;84.90;100785.97;5060878;28;20217;-83
2023/09/27 01:39:21;;;;;;;4.43;2.80;;;;;;;16.77;84.65;100802.94;5061112;28;20238;-81
2023/09/27 01:41:48;;;;;;;3.13;2.93;;;;;;;16.72;84.70;100799.63;5043117;28;20201;-82
2023/09/27 01:44:15;;;;;;;4.53;2.83;;;;;;;16.68;84.58;100808.56;5061218;28;20209;-80
2023/09/27 01:46:41;;;;;;;3.20;3.00;;;;;;;16.63;84.76;100814.03;5059759;28;20227;-82
2023/09/27 01:49:08;;;;;;;3.23;3.03;;;;;;;16.63;84.71;100807.88;5059190;28;20591;-82
2023/09/27 01:51:35;;;;;;;4.00;3.70;;;;;;;16.66;84.46;100816.53;5052180;28;20224;-83
2023/09/27 01:54:02;;;;;;;3.40;3.17;;;;;;;16.66;84.53;100816.53;5059499;28;20240;-82
2023/09/27 01:56:28;;;;;;;3.47;3.20;;;;;;;16.62;84.63;100824.63;5059690;28;20238;-81
2023/09/27 01:58:56;;;;;;;9.90;4.73;;;;;;;16.61;84.16;100828.16;5057589;28;20238;-82
2023/09/27 02:01:23;;;;;;;3.60;3.27;;;;;;;16.55;84.00;100831.91;5057512;28;20216;-83
2023/09/27 02:03:49;;;;;;;3.53;3.30;;;;;;;16.51;84.34;100832.06;5056191;28;20208;-81
2023/09/27 02:06:16;;;;;;;3.37;3.17;;;;;;;16.44;85.63;100820.91;5057872;28;20205;-80
2023/09/27 02:08:42;;;;;;;3.53;3.23;;;;;;;16.17;88.92;100770.09;5056155;28;20224;-82
2023/09/27 02:11:08;;;;;;;4.47;4.27;;;;;;;15.67;93.24;100690.22;5056647;28;20204;-80
2023/09/27 02:13:35;;;;;;;4.63;4.30;;;;;;;15.74;94.34;100643.53;5055725;28;20224;-83
2023/09/27 02:16:03;;;;;;;3.83;3.63;;;;;;;15.94;93.32;100644.56;5058794;28;20215;-81
2023/09/27 02:18:29;;;;;;;3.30;3.00;;;;;;;16.07;91.65;100662.47;5060559;28;20209;-82
2023/09/27 02:20:55;;;;;;;4.93;3.10;;;;;;;16.16;90.56;100677.03;5053198;28;20546;-82
2023/09/27 02:23:22;;;;;;;3.77;3.57;;;;;;;16.18;88.89;100721.78;5060294;28;20227;-83
2023/09/27 02:25:57;;;;;;;3.67;3.40;;;;;;;16.22;87.64;100755.81;5059720;28;20279;-83
2023/09/27 02:28:23;;;;;;;4.17;3.23;;;;;;;16.23;87.40;100765.47;5060643;28;20232;-81
2023/09/27 02:30:50;;;;;;;3.70;3.50;;;;;;;16.27;86.88;100782.88;5060245;28;20203;-81
2023/09/27 02:33:19;;;;;;;6.17;4.90;;;;;;;16.25;86.71;100803.16;5044107;28;20236;-83
2023/09/27 02:35:45;;;;;;;6.33;4.30;;;;;;;16.04;87.98;100794.25;5060352;28;20209;-82
2023/09/27 02:38:12;;;;;;;4.60;4.30;;;;;;;15.65;89.89;100764.88;5060269;28;20209;-82
2023/09/27 02:40:38;;;;;;;6.03;5.63;;;;;;;15.29;92.07;100734.50;5060673;28;20633;-83
2023/09/27 02:43:05;;;;;;;6.63;5.27;;;;;;;15.01;95.44;100665.38;5060629;28;20235;-82
2023/09/27 02:45:32;;;;;;;5.77;5.37;;;;;;;15.00;95.84;100632.94;5059847;28;20574;-82
2023/09/27 02:48:01;;;;;;;5.43;5.03;;;;;;;15.06;96.73;100619.63;5062310;28;20215;-80
2023/09/27 02:50:29;;;;;;;5.40;5.10;;;;;;;15.22;96.39;100608.53;5066420;28;20223;-80
2023/09/27 02:52:55;;;;;;;5.57;5.17;;;;;;;15.25;95.68;100621.59;5067072;28;20238;-83
2023/09/27 02:55:22;;;;;;;6.00;5.40;;;;;;;15.07;95.45;100618.69;5059406;28;20203;-82
2023/09/27 02:57:50;;;;;;;6.00;5.50;;;;;;;15.03;96.63;100608.34;5060017;28;20210;-82
2023/09/27 03:00:17;;;;;;;7.53;4.60;;;;;;;14.98;97.32;100602.38;5059515;28;20235;-82
2023/09/27 03:02:44;;;;;;;5.37;4.97;;;;;;;15.03;97.21;100598.69;5060092;28;20618;-83
2023/09/27 03:05:11;;;;;;;5.17;4.77;;;;;;;15.11;97.18;100598.41;5059233;28;20207;-82
2023/09/27 03:07:39;;;;;;;4.50;4.20;;;;;;;15.22;97.95;100596.28;5060671;28;20198;-82
2023/09/27 03:10:10;;;;;;;4.50;4.17;;;;;;;15.33;97.39;100600.28;5059315;28;20227;-82
2023/09/27 03:12:37;;;;;;;4.27;3.97;;;;;;;15.37;98.38;100583.47;5060042;28;20274;-82
2023/09/27 03:15:04;;;;;;;4.33;3.97;;;;;;;15.44;98.88;100595.47;5060674;28;20211;-82
2023/09/27 03:17:30;;;;;;;4.60;4.20;;;;;;;15.54;98.37;100603.88;5060946;28;20213;-83
2023/09/27 03:19:56;;;;;;;4.40;4.03;;;;;;;15.63;97.28;100612.28;5060925;28;20230;-82
2023/09/27 03:22:23;;;;;;;4.10;3.70;;;;;;;15.73;97.07;100625.16;5060617;28;20208;-82
2023/09/27 03:24:51;;;;;;;3.73;3.53;;;;;;;15.84;96.06;100644.91;5060757;28;20203;-82
2023/09/27 03:27:17;;;;;;;3.50;3.23;;;;;;;15.87;94.90;100670.25;5059518;28;20210;-82
2023/09/27 03:29:43;;;;;;;3.90;3.33;;;;;;;15.93;93.87;100695.47;5060883;28;20246;-83
2023/09/27 03:32:10;;;;;;;4.27;3.97;;;;;;;15.94;92.52;100721.75;5061293;28;20270;-83
2023/09/27 03:34:37;;;;;;;3.73;3.53;;;;;;;15.96;91.54;100754.16;5061589;28;20230;-83
2023/09/27 03:37:04;;;;;;;4.07;3.77;;;;;;;15.93;90.10;100790.25;5061868;28;20211;-83
2023/09/27 03:39:35;;;;;;;4.47;4.17;;;;;;;15.92;88.95;100823.66;5071988;28;20225;-80
2023/09/27 03:42:03;;;;;;;4.77;4.37;;;;;;;15.93;88.39;100840.28;5076015;28;20269;-80
2023/09/27 03:44:29;;;;;;;4.97;4.57;;;;;;;15.86;87.89;100852.81;5075442;28;20223;-80
2023/09/27 03:46:56;;;;;;;5.00;4.70;;;;;;;15.82;88.05;100865.22;5068057;28;20196;-80
2023/09/27 03:49:22;;;;;;;4.40;4.20;;;;;;;15.84;87.58;100865.16;5059061;28;20231;-81
2023/09/27 03:51:49;;;;;;;5.37;4.83;;;;;;;15.82;87.62;100867.84;5065824;28;20231;-83
2023/09/27 03:54:15;;;;;;;4.63;4.30;;;;;;;15.83;87.50;100872.19;5060434;28;20263;-81
2023/09/27 03:56:42;;;;;;;4.93;4.53;;;;;;;15.70;88.12;100860.34;5060235;28;20208;-82
2023/09/27 03:59:10;;;;;;;4.17;3.97;;;;;;;15.67;89.11;100842.84;5058838;28;20261;-83
2023/09/27 04:01:36;;;;;;;6.57;4.43;;;;;;;15.67;89.76;100832.34;5060441;28;20226;-82
2023/09/27 04:04:04;;;;;;;4.20;3.90;;;;;;;15.65;91.02;100810.47;5051766;28;20236;-83
2023/09/27 04:06:31;;;;;;;4.30;4.10;;;;;;;15.62;92.01;100784.28;5054046;28;20208;-82
2023/09/27 04:08:57;;;;;;;4.00;3.80;;;;;;;15.67;92.67;100766.53;5062250;28;20236;-82
2023/09/27 04:11:23;;;;;;;4.33;4.03;;;;;;;15.71;92.99;100743.59;5045214;28;20209;-83
2023/09/27 04:13:50;;;;;;;4.20;3.90;;;;;;;15.83;92.82;100732.66;5064159;28;20234;-81
2023/09/27 04:16:18;;;;;;;4.17;3.87;;;;;;;15.86;91.94;100747.50;5062896;28;20202;-79
2023/09/27 04:18:44;;;;;;;4.10;3.70;;;;;;;15.86;90.88;100764.16;5073419;28;20265;-79
2023/09/27 04:21:11;;;;;;;3.77;3.57;;;;;;;15.77;90.01;100803.09;5071797;28;20622;-81
2023/09/27 04:23:37;;;;;;;4.43;4.13;;;;;;;15.81;89.56;100809.97;5064963;28;20263;-81
2023/09/27 04:26:05;;;;;;;4.30;4.00;;;;;;;15.73;89.18;100819.91;5071734;28;20220;-79
2023/09/27 04:28:33;;;;;;;4.07;3.83;;;;;;;15.75;88.93;100833.88;5062615;28;20194;-80
2023/09/27 04:31:00;;;;;;;3.97;3.67;;;;;;;15.73;89.04;100839.19;5050195;28;20582;-82
2023/09/27 04:33:28;;;;;;;3.30;3.10;;;;;;;15.68;90.28;100823.53;5049235;28;20230;-82
2023/09/27 04:35:54;;;;;;;3.57;3.37;;;;;;;15.75;89.67;100833.88;5057343;28;20206;-82
2023/09/27 04:38:21;;;;;;;4.17;3.87;;;;;;;15.71;91.22;100821.72;5057477;28;20207;-83
2023/09/27 04:40:47;;;;;;;3.43;3.20;;;;;;;15.71;91.16;100816.44;5057288;28;20203;-83
2023/09/27 04:43:13;;;;;;;3.57;3.27;;;;;;;15.81;89.84;100829.25;5057155;28;20237;-82
2023/09/27 04:45:40;;;;;;;3.80;3.60;;;;;;;15.78;88.87;100847.81;5057613;28;20855;-83
2023/09/27 04:48:07;;;;;;;3.63;3.43;;;;;;;15.76;88.69;100859.31;5056407;28;20211;-83
2023/09/27 04:50:35;;;;;;;4.17;3.80;;;;;;;15.77;88.65;100864.50;5052908;28;20226;-80
2023/09/27 04:53:01;;;;;;;3.80;3.50;;;;;;;15.77;89.26;100851.34;5057258;28;20309;-83
2023/09/27 04:55:28;;;;;;;3.80;3.50;;;;;;;15.76;89.15;100841.75;5057826;28;20209;-83
2023/09/27 04:57:54;;;;;;;3.90;3.70;;;;;;;15.76;89.34;100839.09;5057214;28;20244;-81
2023/09/27 05:00:22;;;;;;;3.50;3.30;;;;;;;15.78;89.02;100839.91;5056876;28;20870;-83
2023/09/27 05:02:48;;;;;;;3.57;3.27;;;;;;;15.76;88.01;100861.94;5056646;28;20377;-83
2023/09/27 05:05:16;;;;;;;4.23;3.60;;;;;;;15.72;87.50;100869.03;5047156;28;20227;-81
2023/09/27 05:07:44;;;;;;;3.40;3.20;;;;;;;15.67;88.02;100873.59;5054149;28;20237;-83
2023/09/27 05:10:11;;;;;;;3.00;2.80;;;;;;;15.68;88.11;100868.28;5057772;28;20227;-83
2023/09/27 05:12:38;;;;;;;3.43;3.23;;;;;;;15.68;88.34;100863.00;5058302;28;20805;-83
2023/09/27 05:15:06;;;;;;;3.40;3.20;;;;;;;15.68;88.93;100863.00;5055469;28;20670;-81
2023/09/27 05:17:32;;;;;;;3.47;3.10;;;;;;;15.66;88.95;100845.56;5056190;28;20207;-83
2023/09/27 05:19:58;;;;;;;3.70;3.40;;;;;;;15.64;89.50;100845.59;5052237;28;20228;-81
2023/09/27 05:22:25;;;;;;;3.20;3.00;;;;;;;15.68;89.79;100841.97;5055384;28;20202;-81
2023/09/27 05:24:53;;;;;;;3.50;3.20;;;;;;;15.69;89.80;100843.66;5055306;28;20225;-82
2023/09/27 05:27:19;;;;;;;3.77;3.40;;;;;;;15.75;89.95;100844.41;5055228;28;20212;-83
2023/09/27 05:29:46;;;;;;;4.00;3.80;;;;;;;15.76;89.69;100851.41;5055347;28;20233;-83
2023/09/27 05:32:13;;;;;;;5.03;4.67;;;;;;;15.74;90.27;100854.09;5055310;28;20208;-81
2023/09/27 05:34:39;;;;;;;4.70;4.40;;;;;;;15.75;90.39;100844.41;5054760;28;20226;-80
2023/09/27 05:37:06;;;;;;;4.20;3.90;;;;;;;15.83;89.10;100861.66;5055674;28;20234;-81
2023/09/27 05:39:32;;;;;;;4.53;4.23;;;;;;;15.83;87.76;100889.75;5055451;28;20310;-81
2023/09/27 05:42:00;;;;;;;4.70;4.23;;;;;;;15.83;87.67;100909.03;5055724;28;20215;-83
2023/09/27 05:44:26;;;;;;;3.97;3.73;;;;;;;15.82;87.60;100912.59;5054981;28;20202;-83
2023/09/27 05:46:53;;;;;;;4.93;4.53;;;;;;;15.78;87.67;100928.56;5055442;28;20211;-81
2023/09/27 05:49:20;;;;;;;4.57;4.20;;;;;;;15.78;87.71;100918.88;5054812;28;20596;-82
2023/09/27 05:51:47;;;;;;;4.57;4.27;;;;;;;15.77;87.51;100917.16;5056313;28;20217;-83
2023/09/27 05:54:13;;;;;;;4.47;4.07;;;;;;;15.74;88.04;100912.00;5059295;28;20233;-80
2023/09/27 05:56:39;;;;;;;4.53;4.17;;;;;;;15.73;88.06;100904.16;5058605;28;20260;-82
2023/09/27 05:59:11;;;;;;;4.80;4.50;;;;;;;15.76;87.97;100910.19;5058571;28;20248;-82
2023/09/27 06:01:39;;;;;;;5.10;4.70;;;;;;;15.79;87.43;100915.31;5050919;28;20206;-87
2023/09/27 06:04:05;;;;;;;4.60;4.30;;;;;;;15.79;86.91;100912.69;5057656;28;20204;-83
2023/09/27 06:06:32;;;;;;;5.17;4.63;;;;;;;15.79;86.85;100927.63;5057890;28;20208;-82
2023/09/27 06:08:59;;;;;;;4.10;3.80;;;;;;;15.78;86.87;100923.28;5047837;28;20675;-84
2023/09/27 06:11:25;;;;;;;4.50;4.10;;;;;;;15.66;87.97;100922.75;5059022;28;20245;-84
2023/09/27 06:13:52;;;;;;;4.90;4.50;;;;;;;15.56;89.59;100897.63;5045792;28;20287;-83
2023/09/27 06:16:21;;;;;;;6.60;5.27;;;;;;;15.54;89.21;100895.94;5059861;28;20219;-83
2023/09/27 06:18:51;;;;;;;6.90;6.30;;;;;;;15.11;91.14;100874.50;5065355;28;20226;-86
2023/09/27 06:21:17;;;;;;;6.47;6.07;;;;;;;15.13;91.25;100854.28;5062539;28;20208;-83
2023/09/27 06:23:46;;;;;;;6.40;5.90;;;;;;;15.32;90.67;100851.94;5050260;28;20208;-84
2023/09/27 06:26:15;;;;;;;6.10;5.70;;;;;;;15.44;89.70;100861.16;5057517;28;20222;-83
2023/09/27 06:28:41;;;;;;;5.80;5.30;;;;;;;15.54;89.32;100873.16;5057664;28;20261;-81
2023/09/27 06:31:08;;;;;;;5.83;5.43;;;;;;;15.54;89.54;100867.00;5058685;28;20208;-83
2023/09/27 06:33:39;;;;;;;5.40;5.00;;;;;;;15.60;89.81;100859.78;5042092;28;20228;-84
2023/09/27 06:36:07;;;;;;;5.97;5.30;;;;;;;15.64;90.33;100850.88;5058810;28;20241;-84
2023/09/27 06:38:34;;;;;;;4.90;4.53;;;;;;;15.68;90.30;100839.31;5058352;28;20211;-83
2023/09/27 06:41:01;;;;;;;4.60;4.30;;;;;;;15.77;90.39;100839.97;5058261;28;20208;-82
2023/09/27 06:43:29;;;;;;;4.63;4.33;;;;;;;15.83;90.48;100837.13;5058600;28;20203;-84
2023/09/27 06:45:55;;;;;;;4.47;4.17;;;;;;;15.83;91.70;100810.78;5060012;28;20204;-83
2023/09/27 06:48:25;;;;;;;4.20;3.90;;;;;;;15.84;92.05;100802.84;5046667;28;20238;-83
2023/09/27 06:50:53;;;;;;;4.23;4.00;;;;;;;15.89;92.39;100792.13;5054428;28;20757;-84
2023/09/27 06:53:20;;;;;;;4.30;4.00;;;;;;;15.95;93.69;100775.28;5049494;28;20233;-84
2023/09/27 06:55:49;;;;;;;3.93;3.73;;;;;;;15.93;95.95;100733.19;5057824;28;20226;-84
2023/09/27 06:58:22;;;;;;;4.03;3.83;;;;;;;15.89;98.29;100695.59;5057831;28;20296;-85
2023/09/27 07:00:49;;;;;;;4.17;3.93;;;;;;;15.97;99.38;100668.13;5059765;28;20252;-84
2023/09/27 07:03:16;;;;;;;4.20;4.00;;;;;;;15.96;100.00;100658.53;5057796;28;20289;-84
2023/09/27 07:05:42;;;;;;;5.37;4.87;;;;;;;15.93;100.00;100643.69;5057674;28;20235;-83
2023/09/27 07:08:10;;;;;;;4.67;4.27;;;;;;;15.97;100.00;100637.38;5058475;28;20213;-83
2023/09/27 07:10:37;;;;;;;6.00;4.80;;;;;;;16.00;100.00;100642.53;5042372;28;20227;-81
2023/09/27 07:13:04;;;;;;;5.00;4.60;;;;;;;15.94;100.00;100645.41;5050350;28;20237;-81
2023/09/27 07:15:31;;;;;;;4.50;4.13;;;;;;;16.03;100.00;100642.41;5046641;28;20211;-80
2023/09/27 07:17:58;;;;;;;6.20;4.17;;;;;;;16.19;100.00;100633.91;5063660;28;20215;-81
2023/09/27 07:20:27;;;;;;;4.33;4.03;;;;;;;16.33;100.00;100636.88;5055759;28;20596;-81
2023/09/27 07:22:55;;;;;;;4.80;4.40;;;;;;;16.58;100.00;100631.47;5059912;28;20315;-82
2023/09/27 07:25:24;;;;;;;4.50;4.20;;;;;;;16.68;100.00;100651.25;5059446;28;20217;-82
2023/09/27 07:27:50;;;;;;;4.03;3.70;;;;;;;16.87;100.00;100667.22;5055813;28;20221;-81
2023/09/27 07:30:20;;;;;;;4.57;4.17;;;;;;;16.93;100.00;100694.28;5048763;28;20233;-82
2023/09/27 07:32:47;;;;;;;9.63;8.90;;;;;;;16.95;99.41;100697.69;5040925;28;20663;-83
2023/09/27 07:35:16;;;;;;;4.47;4.17;;;;;;;16.97;99.66;100709.91;5042169;28;20222;-82
2023/09/27 07:37:43;;;;;;;5.93;5.63;;;;;;;17.03;100.00;100700.88;5044431;28;20276;-84
2023/09/27 07:40:13;;;;;;;9.63;8.90;;;;;;;17.18;100.00;100676.47;5038202;28;20296;-83
2023/09/27 07:42:42;;;;;;;12.67;11.47;;;;;;;17.36;100.00;100671.31;5036751;28;20570;-82
2023/09/27 07:45:20;;;;;;;11.23;10.43;;;;;;;17.46;100.00;100680.56;5040199;28;20257;-84
2023/09/27 07:47:48;;;;;;;7.83;7.33;;;;;;;17.60;100.00;100701.06;5040263;28;20220;-83
2023/09/27 07:50:15;;;;;;;8.47;7.77;;;;;;;17.55;99.58;100732.09;5042800;28;20216;-84
2023/09/27 07:52:41;;;;;;;8.67;7.97;;;;;;;17.55;98.23;100769.06;5036085;28;20199;-82
2023/09/27 07:55:09;;;;;;;16.43;8.13;;;;;;;17.61;97.85;100776.72;5039107;28;20234;-82
2023/09/27 07:57:36;;;;;;;8.83;8.10;;;;;;;17.67;97.67;100792.28;5043379;28;20210;-82
2023/09/27 08:00:09;;;;;;;8.03;7.53;;;;;;;17.63;97.24;100801.25;5042707;28;20241;-80
2023/09/27 08:02:36;;;;;;;7.97;7.37;;;;;;;17.59;97.14;100805.81;5047598;28;20691;-81
2023/09/27 08:05:06;;;;;;;8.90;8.40;;;;;;;17.49;98.30;100807.13;5039788;28;20243;-83
2023/09/27 08:07:32;;;;;;;9.70;8.77;;;;;;;17.72;98.91;100800.00;5056364;28;20212;-85
2023/09/27 08:09:59;;;;;;;8.67;7.97;;;;;;;17.77;96.84;100820.00;5045556;28;20312;-83
2023/09/27 08:12:27;;;;;;;7.80;7.20;;;;;;;17.75;96.25;100829.78;5036108;28;20217;-83
2023/09/27 08:14:54;;;;;;;8.53;7.83;;;;;;;17.58;95.13;100840.19;5043266;28;20245;-83
2023/09/27 08:17:22;;;;;;;8.20;7.50;;;;;;;17.76;95.29;100843.81;5041979;28;20203;-81
2023/09/27 08:19:48;;;;;;;7.23;6.73;;;;;;;17.91;95.78;100835.28;5041680;28;20889;-81
2023/09/27 08:22:14;;;;;;;9.03;8.40;;;;;;;17.99;95.04;100848.16;5039815;28;20664;-82
2023/09/27 08:24:41;;;;;;;10.90;9.83;;;;;;;18.03;95.37;100850.59;5049296;28;20284;-82
2023/09/27 08:27:07;;;;;;;11.50;10.57;;;;;;;17.99;94.77;100864.03;5057236;28;20314;-82
2023/09/27 08:29:34;;;;;;;11.97;10.97;;;;;;;18.01;93.72;100870.94;5056883;28;20272;-86
2023/09/27 08:32:01;;;;;;;10.07;9.17;;;;;;;17.96;91.07;100902.00;5057332;28;20676;-83
2023/09/27 08:34:29;;;;;;;10.93;9.90;;;;;;;18.06;90.96;100918.31;5055372;28;20237;-82
2023/09/27 08:36:55;;;;;;;9.83;9.23;;;;;;;18.17;92.23;100917.84;5057536;28;20262;-82
2023/09/27 08:42:57;;;;;;;8.70;7.70;;;;;;;18.44;93.82;100858.50;5011635;28;20606;-83
2023/09/27 08:45:24;;;;;;;7.17;6.63;;;;;;;18.57;92.22;100893.19;5068680;28;20610;-84
2023/09/27 08:47:52;;;;;;;10.50;9.43;;;;;;;18.58;90.15;100931.06;5076945;28;20210;-82
2023/09/27 08:50:20;;;;;;;10.07;9.13;;;;;;;18.73;88.29;100964.75;5075875;28;20227;-80
2023/09/27 08:52:48;;;;;;;10.00;9.20;;;;;;;18.90;86.47;100995.75;5071841;28;20203;-80
2023/09/27 08:58:37;;;;;;;9.40;8.60;;;;;;;19.16;82.76;101078.41;5094180;28;20633;-83
2023/09/27 09:02:04;;;;;;;8.50;7.93;;;;;;;19.43;84.82;101071.03;5098105;28;20575;-83
2023/09/27 09:04:31;;;;;;;9.33;7.63;;;;;;;19.41;82.74;101089.63;5098264;28;20211;-85
2023/09/27 09:11:09;;;;;;;6.13;5.63;;;;;;;19.61;80.64;101148.75;5136245;22;20310;-82
2023/09/27 09:13:56;;;;;;;5.77;5.00;;;;;;;19.66;81.19;101154.69;5011046;28;20234;-82
2023/09/27 09:19:26;;;;;;;4.83;4.47;;;;;;;19.74;82.24;101115.53;4936900;29;20233;-83
2023/09/27 09:22:26;;;;;;;4.83;4.33;;;;;;;19.90;81.86;101106.84;4988499;28;20555;-85
2023/09/27 09:28:15;;;;;;;7.20;5.07;;;;;;;19.91;83.77;101051.13;4937455;29;20220;-86
2023/09/27 09:30:49;;;;;;;11.17;4.60;;;;;;;19.97;83.13;101049.97;4929950;29;20552;-82
2023/09/27 09:37:35;;;;;;;5.03;4.73;;;;;;;20.24;83.91;101035.38;4841116;29;20220;-84
2023/09/27 09:40:14;;;;;;;6.17;5.67;;;;;;;20.26;81.41;101085.66;4889713;29;20234;-85
2023/09/27 09:42:44;;;;;;;6.13;5.73;;;;;;;20.37;81.68;101107.19;4897669;29;20305;-84
2023/09/27 09:45:20;;;;;;;5.80;5.37;;;;;;;20.43;81.68;101122.84;4947689;28;20214;-83
2023/09/27 09:47:46;;;;;;;4.63;4.37;;;;;;;20.53;80.38;101138.28;4995253;28;20230;-83
2023/09/27 09:50:16;;;;;;;4.67;4.30;;;;;;;20.72;80.02;101159.47;5032280;28;20233;-84
2023/09/27 09:52:50;;;;;;;6.30;5.80;;;;;;;20.79;77.57;101206.88;5042918;28;20211;-83
2023/09/27 09:55:21;;;;;;;8.93;8.00;;;;;;;20.75;76.99;101242.44;5040857;28;20226;-83
2023/09/27 09:57:51;;;;;;;10.93;10.07;;;;;;;20.78;76.99;101249.41;5042905;28;20213;-83
2023/09/27 10:00:25;;;;;;;10.20;9.60;;;;;;;20.94;77.01;101246.84;5044238;28;20952;-83
2023/09/27 10:02:59;;;;;;;10.60;9.87;;;;;;;20.90;75.17;101293.06;5040464;28;20271;-82
2023/09/27 10:05:29;;;;;;;11.33;10.30;;;;;;;20.96;74.69;101292.75;5040295;28;20214;-86
2023/09/27 10:07:56;;;;;;;11.03;10.33;;;;;;;20.97;74.76;101307.72;5032638;28;20276;-85
2023/09/27 10:10:24;;;;;;;10.37;9.47;;;;;;;21.03;74.37;101310.13;5031869;28;20447;-87
2023/09/27 10:12:52;;;;;;;10.27;9.57;;;;;;;21.02;73.30;101329.63;5032491;28;20718;-87
2023/09/27 10:15:22;;;;;;;9.60;9.00;;;;;;;21.07;73.17;101346.19;5034925;28;20257;-88
2023/09/27 10:17:50;;;;;;;10.73;9.83;;;;;;;21.03;74.41;101316.28;5034790;28;20209;-88
2023/09/27 10:20:20;;;;;;;10.90;10.17;;;;;;;21.01;74.68;101291.59;5034923;28;20230;-87
2023/09/27 10:22:49;;;;;;;9.97;9.07;;;;;;;20.94;74.90;101298.13;5038289;28;20213;-88
2023/09/27 10:25:35;;;;;;;10.17;9.37;;;;;;;20.83;72.61;101330.50;5035627;28;20214;-87
2023/09/27 10:28:06;;;;;;;8.27;7.50;;;;;;;20.99;76.45;101301.44;5038911;28;20198;-86
2023/09/27 10:31:07;;;;;;;7.47;6.73;;;;;;;20.96;79.75;101155.59;5033400;28;20233;-88
2023/09/27 10:33:33;;;;;;;6.57;5.97;;;;;;;20.93;82.57;101068.16;5034781;28;20202;-86
2023/09/27 10:36:28;;;;;;;8.93;8.30;;;;;;;21.00;81.57;101040.34;5035651;28;20230;-87
2023/09/27 10:39:05;;;;;;;8.00;7.30;;;;;;;21.14;83.07;101012.22;5045165;28;20214;-86
2023/09/27 10:41:46;;;;;;;7.67;6.97;;;;;;;21.44;81.62;101022.13;5055588;28;20206;-85
2023/09/27 10:44:30;;;;;;;8.43;7.93;;;;;;;21.58;77.74;101084.19;5055589;28;20194;-85
2023/09/27 10:46:58;;;;;;;9.37;8.67;;;;;;;21.72;77.31;101112.66;5039703;28;20211;-86
2023/09/27 10:49:25;;;;;;;8.50;7.90;;;;;;;21.88;77.36;101111.81;5036987;28;20222;-86
2023/09/27 10:51:55;;;;;;;7.07;6.43;;;;;;;21.99;77.08;101142.16;5036192;28;20275;-86
2023/09/27 10:54:23;;;;;;;6.47;6.00;;;;;;;22.14;77.03;101128.94;5034723;28;20268;-86
2023/09/27 10:56:52;;;;;;;8.43;7.50;;;;;;;22.21;77.36;101115.22;5034383;28;20230;-86
2023/09/27 10:59:26;;;;;;;7.30;6.13;;;;;;;22.36;75.67;101121.53;5036913;28;20284;-86
2023/09/27 11:01:52;;;;;;;6.10;5.70;;;;;;;22.59;76.28;101140.59;5036497;28;20206;-84
2023/09/27 11:04:23;;;;;;;5.17;4.67;;;;;;;22.75;71.39;101218.59;5034839;28;20232;-87
2023/09/27 11:06:50;;;;;;;4.17;3.90;;;;;;;22.93;71.95;101239.78;5030916;28;20203;-85
2023/09/27 11:09:19;;;;;;;3.90;3.60;;;;;;;23.04;70.25;101306.66;5034059;28;20670;-84
2023/09/27 11:11:50;;;;;;;4.43;3.77;;;;;;;23.05;71.75;101283.53;5032140;28;20206;-86
2023/09/27 11:14:27;;;;;;;4.47;4.07;;;;;;;23.28;73.86;101226.25;5036262;28;20540;-85
2023/09/27 11:16:54;;;;;;;3.50;3.20;;;;;;;23.26;70.35;101276.94;5033868;28;20221;-87
2023/09/27 11:19:29;;;;;;;2.90;2.70;;;;;;;23.15;66.68;101368.16;5033308;28;20226;-85
2023/09/27 11:21:55;;;;;;;3.57;3.37;;;;;;;23.43;68.00;101355.91;5033021;28;20233;-87
2023/09/27 11:24:23;;;;;;;3.00;2.80;;;;;;;23.68;70.05;101309.97;5030715;28;20210;-86
2023/09/27 11:26:50;;;;;;;3.10;2.90;;;;;;;23.84;69.47;101301.09;5032085;28;20726;-86
2023/09/27 11:29:17;;;;;;;2.90;2.70;;;;;;;24.21;68.46;101306.84;5033280;28;20234;-87
2023/09/27 11:31:56;;;;;;;4.20;2.80;;;;;;;24.42;69.13;101334.84;5031243;28;20199;-86
2023/09/27 11:34:22;;;;;;;2.60;2.50;;;;;;;24.25;66.82;101365.25;5031867;28;20203;-86
2023/09/27 11:37:02;;;;;;;2.80;2.60;;;;;;;24.18;64.29;101436.81;5032941;28;20207;-86
2023/09/27 11:39:30;;;;;;;3.03;2.83;;;;;;;24.08;65.36;101438.31;5032675;28;20284;-86
2023/09/27 11:42:00;;;;;;;4.20;2.50;;;;;;;23.80;69.12;101337.75;5033066;28;20379;-86
2023/09/27 11:44:27;;;;;;;3.77;2.73;;;;;;;23.74;71.38;101280.28;5035383;28;20672;-86
2023/09/27 11:47:05;;;;;;;3.10;2.90;;;;;;;23.93;70.70;101232.06;5033102;28;20634;-86
2023/09/27 11:49:32;;;;;;;3.60;2.73;;;;;;;23.85;70.13;101236.16;5034168;28;20229;-87
2023/09/27 11:52:01;;;;;;;2.90;2.70;;;;;;;23.90;69.69;101250.06;5036785;28;20204;-89